Terminal Aerodrome Forecast
Issued by NWS Sterling, VA

Current Version | Previous Version | Graphics & Text | Print | Product List | Glossary On
Versions: 1 2 3 4 5 6 7 8 9 10 11 12 13 14 15 16 17 18 19 20 21 22 23 24
000
FTUS41 KLWX 222000 AAA
TAFIAD
TAF AMD
KIAD 222057Z 2221/2324 31012G22KT P6SM SCT050
     FM222300 32005KT P6SM SCT050
     FM231600 16005KT P6SM BKN250=

USA.gov is the U.S. government's official web portal to all federal, state and local government web resources and services.